Time;durP1;ratioP1;P1;durP2;ratioP2;P2;SDS_P1;SDS_P2;PMS_P1;PMS_P2;Temp;Humidity;BMP_temperature;BMP_pressure;BME280_temperature;BME280_humidity;BME280_pressure;Samples;Min_cycle;Max_cycle;Signal;HPM_P1;HPM_P2
2021/10/20 00:00:23;;;;;;;6.15;5.38;;;14.90;99.90;;;;;;4940079;29;20483;-84
2021/10/20 00:02:50;;;;;;;5.18;4.68;;;14.90;99.90;;;;;;4940566;29;20023;-85
2021/10/20 00:05:17;;;;;;;6.00;4.53;;;14.90;99.90;;;;;;4939693;29;20220;-88
2021/10/20 00:07:44;;;;;;;6.07;4.82;;;14.90;99.90;;;;;;4940762;29;20059;-87
2021/10/20 00:10:10;;;;;;;6.25;4.50;;;14.90;99.90;;;;;;4957397;29;20530;-89
2021/10/20 00:12:37;;;;;;;6.03;4.80;;;14.90;99.90;;;;;;4939855;29;20069;-84
2021/10/20 00:15:05;;;;;;;6.80;4.90;;;14.90;99.90;;;;;;4940201;29;20031;-84
2021/10/20 00:17:34;;;;;;;5.25;4.68;;;14.90;99.90;;;;;;4940860;29;20022;-83
2021/10/20 00:20:06;;;;;;;7.57;4.72;;;14.90;99.90;;;;;;4939191;29;20118;-85
2021/10/20 00:22:33;;;;;;;5.93;4.25;;;14.80;99.90;;;;;;4940150;29;20033;-85
2021/10/20 00:24:59;;;;;;;5.25;4.45;;;14.80;99.90;;;;;;4939661;29;20519;-83
2021/10/20 00:27:24;;;;;;;5.60;4.45;;;14.80;99.90;;;;;;4939174;29;20024;-87
2021/10/20 00:29:50;;;;;;;5.10;4.32;;;14.80;99.90;;;;;;4940120;29;20145;-85
2021/10/20 00:32:16;;;;;;;6.13;4.30;;;14.80;99.90;;;;;;4939786;29;20041;-87
2021/10/20 00:34:41;;;;;;;4.63;3.85;;;14.80;99.90;;;;;;4938951;29;20035;-85
2021/10/20 00:37:07;;;;;;;5.63;4.68;;;14.80;99.90;;;;;;4939475;29;20054;-83
2021/10/20 00:39:32;;;;;;;5.90;4.65;;;14.80;99.90;;;;;;4939378;29;20030;-86
2021/10/20 00:41:58;;;;;;;4.75;4.25;;;14.80;99.90;;;;;;4923945;29;20122;-88
2021/10/20 00:44:23;;;;;;;4.32;3.92;;;14.80;99.90;;;;;;4939859;29;20066;-84
2021/10/20 00:46:49;;;;;;;5.95;4.53;;;14.70;99.90;;;;;;4939292;29;20084;-82
2021/10/20 00:49:15;;;;;;;4.80;3.90;;;14.70;99.90;;;;;;4939311;29;20042;-82
2021/10/20 00:51:41;;;;;;;6.13;3.88;;;14.70;99.90;;;;;;4939691;29;20058;-89
2021/10/20 00:54:07;;;;;;;4.60;4.18;;;14.70;99.90;;;;;;4938390;29;20079;-81
2021/10/20 00:56:33;;;;;;;8.05;4.55;;;14.70;99.90;;;;;;4939590;29;20034;-87
2021/10/20 00:58:59;;;;;;;5.15;3.90;;;14.70;99.90;;;;;;4939277;29;20472;-89
2021/10/20 01:01:25;;;;;;;6.90;4.95;;;14.70;99.90;;;;;;4939299;29;20019;-85
2021/10/20 01:03:51;;;;;;;4.88;3.42;;;14.70;99.90;;;;;;4939379;29;20027;-85
2021/10/20 01:06:17;;;;;;;6.13;4.10;;;14.70;99.90;;;;;;4938651;29;20027;-83
2021/10/20 01:08:43;;;;;;;5.82;4.45;;;14.70;99.90;;;;;;4938877;29;20125;-82
2021/10/20 01:11:09;;;;;;;6.40;3.80;;;14.70;99.90;;;;;;4939096;29;20089;-85
2021/10/20 01:13:35;;;;;;;6.15;4.30;;;14.70;99.90;;;;;;4939292;29;20023;-86
2021/10/20 01:16:01;;;;;;;5.25;4.35;;;14.70;99.90;;;;;;4938455;29;20110;-80
2021/10/20 01:18:28;;;;;;;4.93;4.40;;;14.70;99.90;;;;;;4939103;29;20022;-81
2021/10/20 01:20:59;;;;;;;5.85;4.07;;;14.70;99.90;;;;;;4939230;29;20079;-87
2021/10/20 01:23:26;;;;;;;6.70;4.28;;;14.70;99.90;;;;;;4938362;29;20024;-87
2021/10/20 01:25:52;;;;;;;6.45;4.03;;;14.70;99.90;;;;;;4939478;29;20040;-82
2021/10/20 01:28:18;;;;;;;8.20;4.28;;;14.70;99.90;;;;;;4955876;29;20041;-85
2021/10/20 01:30:43;;;;;;;5.90;4.30;;;14.80;99.90;;;;;;4955282;29;20035;-87
2021/10/20 01:33:10;;;;;;;4.82;3.72;;;14.80;99.90;;;;;;4938581;29;20026;-84
2021/10/20 01:35:36;;;;;;;4.50;3.78;;;14.80;99.90;;;;;;4938498;29;20062;-80
2021/10/20 01:38:02;;;;;;;4.65;4.18;;;14.80;99.90;;;;;;4938459;29;20031;-86
2021/10/20 01:40:28;;;;;;;5.53;4.88;;;14.80;99.90;;;;;;4939455;29;20509;-86
2021/10/20 01:42:54;;;;;;;5.22;4.72;;;14.90;99.90;;;;;;4938312;29;20027;-88
2021/10/20 01:45:20;;;;;;;7.15;4.43;;;14.90;99.90;;;;;;4955726;29;20445;-83
2021/10/20 01:47:45;;;;;;;5.40;4.90;;;14.90;99.90;;;;;;4955149;28;20082;-88
2021/10/20 01:50:14;;;;;;;6.30;4.32;;;14.90;99.90;;;;;;4937713;29;20023;-87
2021/10/20 01:52:40;;;;;;;6.07;4.43;;;14.90;99.90;;;;;;4937981;28;20037;-88
2021/10/20 01:55:07;;;;;;;4.88;4.35;;;14.90;99.90;;;;;;4938581;29;20126;-89
2021/10/20 01:57:33;;;;;;;6.35;4.15;;;15.00;99.90;;;;;;4937581;29;20514;-87
2021/10/20 01:59:59;;;;;;;7.63;5.00;;;15.00;99.90;;;;;;4955201;29;20031;-80
2021/10/20 02:02:25;;;;;;;5.47;4.10;;;15.00;99.90;;;;;;4938084;29;20027;-79
2021/10/20 02:04:50;;;;;;;4.82;4.30;;;15.00;99.90;;;;;;4921769;29;20039;-83
2021/10/20 02:07:16;;;;;;;6.93;4.97;;;15.00;99.90;;;;;;4937711;29;20065;-87
2021/10/20 02:09:42;;;;;;;5.97;4.20;;;15.00;99.90;;;;;;4938448;29;20034;-85
2021/10/20 02:12:08;;;;;;;6.82;4.18;;;15.10;99.90;;;;;;4954654;29;20114;-82
2021/10/20 02:14:34;;;;;;;7.93;4.43;;;15.10;99.90;;;;;;4955137;29;20172;-82
2021/10/20 02:17:01;;;;;;;5.15;3.83;;;15.10;99.90;;;;;;4955386;29;20054;-84
2021/10/20 02:19:27;;;;;;;7.95;4.22;;;15.10;99.90;;;;;;4954555;29;20446;-86
2021/10/20 02:21:57;;;;;;;4.32;3.80;;;15.10;99.90;;;;;;4937860;29;20443;-85
2021/10/20 02:24:23;;;;;;;4.70;3.78;;;15.10;99.90;;;;;;4937898;29;20050;-84
2021/10/20 02:26:49;;;;;;;6.22;4.30;;;15.10;99.90;;;;;;4937500;29;20475;-84
2021/10/20 02:29:14;;;;;;;4.22;3.83;;;15.10;99.90;;;;;;4937485;29;20023;-82
2021/10/20 02:31:46;;;;;;;5.10;4.00;;;15.10;99.90;;;;;;4937799;29;20114;-85
2021/10/20 02:34:13;;;;;;;4.50;4.05;;;15.10;99.90;;;;;;4921707;29;20101;-87
2021/10/20 02:36:38;;;;;;;5.72;4.00;;;15.10;99.90;;;;;;4937569;29;20027;-88
2021/10/20 02:39:04;;;;;;;4.63;4.10;;;15.10;99.90;;;;;;4937145;29;20077;-86
2021/10/20 02:41:29;;;;;;;5.30;4.50;;;15.10;99.90;;;;;;4937685;29;20027;-86
2021/10/20 02:43:55;;;;;;;6.03;4.18;;;15.10;99.90;;;;;;4937364;29;20135;-84
2021/10/20 02:46:21;;;;;;;4.13;3.80;;;15.20;99.90;;;;;;4933722;29;20539;-80
2021/10/20 02:48:46;;;;;;;5.18;4.40;;;15.20;99.90;;;;;;4934580;29;20027;-82
2021/10/20 02:51:13;;;;;;;4.20;3.80;;;15.10;99.90;;;;;;4952004;28;20031;-81
2021/10/20 02:53:40;;;;;;;5.22;4.03;;;15.10;99.90;;;;;;4932972;28;20384;-83
2021/10/20 02:56:05;;;;;;;7.95;4.50;;;15.10;99.90;;;;;;4918143;29;20481;-85
2021/10/20 02:58:31;;;;;;;4.53;3.80;;;15.10;99.90;;;;;;4918786;29;20028;-83
2021/10/20 03:00:56;;;;;;;5.05;3.92;;;15.10;99.90;;;;;;4917346;29;20106;-81
2021/10/20 03:03:22;;;;;;;11.73;4.25;;;15.10;99.90;;;;;;4918585;29;20115;-86
2021/10/20 03:05:48;;;;;;;5.65;4.50;;;15.10;99.90;;;;;;4918713;29;20063;-86
2021/10/20 03:08:13;;;;;;;4.82;4.32;;;15.10;99.90;;;;;;4917341;29;20416;-84
2021/10/20 03:10:40;;;;;;;5.30;3.92;;;15.10;99.90;;;;;;4917731;29;20032;-85
2021/10/20 03:13:06;;;;;;;4.28;3.85;;;15.00;99.90;;;;;;4917931;29;20027;-87
2021/10/20 03:15:31;;;;;;;6.80;4.28;;;15.00;99.90;;;;;;4934908;29;20024;-86
2021/10/20 03:17:58;;;;;;;5.10;4.15;;;15.00;99.90;;;;;;4918492;29;20019;-85
2021/10/20 03:20:23;;;;;;;4.70;4.28;;;15.00;99.90;;;;;;4918271;29;20456;-82
2021/10/20 03:22:49;;;;;;;9.52;5.25;;;15.00;99.90;;;;;;4917261;29;20102;-84
2021/10/20 03:25:14;;;;;;;5.35;3.90;;;15.00;99.90;;;;;;4934156;29;20078;-80
2021/10/20 03:27:51;;;;;;;5.85;4.07;;;15.00;99.90;;;;;;4918183;29;20020;-80
2021/10/20 03:30:19;;;;;;;5.40;4.20;;;15.00;99.90;;;;;;4917314;29;20091;-84
2021/10/20 03:32:45;;;;;;;5.65;4.63;;;15.00;99.90;;;;;;4917916;29;20026;-79
2021/10/20 03:35:12;;;;;;;5.10;4.43;;;15.00;99.90;;;;;;4917433;29;20028;-80
2021/10/20 03:37:37;;;;;;;5.18;4.35;;;15.10;99.90;;;;;;4918116;29;20027;-81
2021/10/20 03:40:04;;;;;;;5.50;4.50;;;15.10;99.90;;;;;;4918117;29;20032;-84
2021/10/20 03:42:31;;;;;;;7.22;4.60;;;15.10;99.90;;;;;;4917182;29;20020;-85
2021/10/20 03:44:58;;;;;;;5.28;4.78;;;15.10;99.90;;;;;;4917827;29;20032;-81
2021/10/20 03:47:24;;;;;;;6.20;4.70;;;15.10;99.90;;;;;;4935057;29;20020;-84
2021/10/20 03:49:50;;;;;;;5.72;4.30;;;15.10;99.90;;;;;;4917449;29;20027;-85
2021/10/20 03:52:17;;;;;;;5.45;4.55;;;15.10;99.90;;;;;;4917889;29;20019;-86
2021/10/20 03:54:43;;;;;;;7.55;5.30;;;15.10;99.90;;;;;;4936533;29;20051;-86
2021/10/20 03:57:08;;;;;;;5.78;4.93;;;15.10;99.90;;;;;;4952162;29;20026;-82
2021/10/20 03:59:34;;;;;;;9.90;5.20;;;15.10;99.90;;;;;;4936578;29;20043;-83
2021/10/20 04:02:00;;;;;;;8.02;4.75;;;15.10;99.90;;;;;;4936721;29;20483;-81
2021/10/20 04:04:25;;;;;;;6.80;5.03;;;15.10;99.90;;;;;;4952032;29;20049;-80
2021/10/20 04:06:51;;;;;;;6.63;4.78;;;15.10;99.90;;;;;;4936925;29;20023;-82
2021/10/20 04:09:17;;;;;;;6.00;5.03;;;15.10;99.90;;;;;;4953825;29;20073;-88
2021/10/20 04:11:42;;;;;;;7.60;5.40;;;15.10;99.90;;;;;;4938823;29;20020;-85
2021/10/20 04:14:08;;;;;;;6.07;5.47;;;15.10;99.90;;;;;;4955884;29;20468;-87
2021/10/20 04:16:34;;;;;;;7.32;4.72;;;15.10;99.90;;;;;;4940309;29;20028;-85
2021/10/20 04:19:00;;;;;;;7.40;5.30;;;15.10;99.90;;;;;;4939679;29;20078;-87
2021/10/20 04:21:25;;;;;;;5.95;4.30;;;15.10;99.90;;;;;;4941088;29;20039;-92
2021/10/20 04:23:51;;;;;;;5.07;4.43;;;15.10;99.90;;;;;;4940442;29;20026;-86
2021/10/20 04:26:16;;;;;;;7.28;4.82;;;15.10;99.90;;;;;;4939616;29;20039;-88
2021/10/20 04:28:42;;;;;;;4.90;4.28;;;15.10;99.90;;;;;;4940054;29;20023;-85
2021/10/20 04:31:09;;;;;;;6.43;4.40;;;15.10;99.90;;;;;;4939543;29;20408;-88
2021/10/20 04:33:34;;;;;;;7.43;5.20;;;15.10;99.90;;;;;;4939531;29;20027;-83
2021/10/20 04:36:00;;;;;;;5.47;4.60;;;15.10;99.90;;;;;;4922834;29;20023;-83
2021/10/20 04:38:25;;;;;;;6.20;4.63;;;15.10;99.90;;;;;;4927442;29;20035;-82
2021/10/20 04:40:51;;;;;;;5.60;4.65;;;15.10;99.90;;;;;;4929794;29;20023;-80
2021/10/20 04:43:17;;;;;;;5.88;4.53;;;15.20;99.90;;;;;;4925974;29;20031;-88
2021/10/20 04:45:42;;;;;;;7.53;5.00;;;15.20;99.90;;;;;;4923549;29;20070;-88
2021/10/20 04:48:08;;;;;;;6.22;4.68;;;15.20;99.90;;;;;;4920970;29;20030;-92
2021/10/20 04:50:33;;;;;;;5.72;4.63;;;15.20;99.90;;;;;;4919605;29;20127;-92
2021/10/20 04:52:59;;;;;;;7.30;4.32;;;15.30;99.90;;;;;;4942596;28;20027;-89
2021/10/20 04:55:24;;;;;;;5.57;4.50;;;15.30;99.90;;;;;;4958339;29;20027;-93
2021/10/20 04:57:51;;;;;;;5.88;4.78;;;15.30;99.90;;;;;;4938680;29;20023;-81
2021/10/20 05:00:19;;;;;;;8.50;4.97;;;15.30;99.90;;;;;;4938266;29;20030;-90
2021/10/20 05:02:45;;;;;;;5.95;4.63;;;15.30;99.90;;;;;;4938843;29;20027;-87
2021/10/20 05:05:11;;;;;;;5.68;5.00;;;15.30;99.90;;;;;;4939381;29;20047;-82
2021/10/20 05:07:51;;;;;;;7.20;5.22;;;15.40;99.90;;;;;;4939206;29;20019;-82
2021/10/20 05:10:18;;;;;;;6.93;6.22;;;15.40;99.90;;;;;;4954513;29;20484;-82
2021/10/20 05:12:44;;;;;;;7.78;5.47;;;15.40;99.90;;;;;;4953213;29;20015;-89
2021/10/20 05:15:11;;;;;;;5.93;5.35;;;15.40;99.90;;;;;;4952601;29;20062;-82
2021/10/20 05:17:42;;;;;;;6.85;6.15;;;15.40;99.90;;;;;;4939043;29;20049;-80
2021/10/20 05:20:10;;;;;;;6.50;5.90;;;15.40;99.90;;;;;;4938663;29;20126;-80
2021/10/20 05:22:37;;;;;;;7.47;5.22;;;15.40;99.90;;;;;;4937449;29;20023;-87
2021/10/20 05:25:04;;;;;;;6.72;5.82;;;15.40;99.90;;;;;;4937565;29;20082;-81
2021/10/20 05:27:32;;;;;;;6.35;5.75;;;15.40;99.90;;;;;;4956093;29;20027;-86
2021/10/20 05:29:57;;;;;;;6.43;5.72;;;15.40;99.90;;;;;;4948567;29;20110;-83
2021/10/20 05:32:24;;;;;;;10.57;6.10;;;15.40;99.90;;;;;;4937622;29;20515;-83
2021/10/20 05:34:50;;;;;;;6.75;5.45;;;15.40;99.90;;;;;;4936328;29;20387;-86
2021/10/20 05:37:15;;;;;;;6.45;5.65;;;15.30;99.90;;;;;;4952744;29;20023;-81
2021/10/20 05:39:41;;;;;;;6.22;5.63;;;15.30;99.90;;;;;;4937536;29;20024;-83
2021/10/20 05:42:07;;;;;;;6.13;5.57;;;15.30;99.90;;;;;;4955329;29;20024;-82
2021/10/20 05:44:32;;;;;;;7.07;5.78;;;15.30;99.90;;;;;;4932937;29;20048;-81
2021/10/20 05:46:59;;;;;;;7.28;5.40;;;15.30;99.90;;;;;;4933029;29;20031;-82
2021/10/20 05:49:25;;;;;;;7.68;5.38;;;15.30;99.90;;;;;;4937237;29;20377;-86
2021/10/20 05:51:50;;;;;;;8.27;5.75;;;15.30;99.90;;;;;;4963422;28;20026;-81
2021/10/20 05:54:16;;;;;;;8.63;5.45;;;15.30;99.90;;;;;;4941456;28;20059;-82
2021/10/20 05:56:41;;;;;;;6.13;5.40;;;15.30;99.90;;;;;;4934822;29;20023;-81
2021/10/20 05:59:07;;;;;;;6.70;5.47;;;15.30;99.90;;;;;;4915927;29;20063;-86
2021/10/20 06:01:33;;;;;;;6.90;5.57;;;15.30;99.90;;;;;;4933690;29;20468;-78
2021/10/20 06:03:59;;;;;;;6.15;5.30;;;15.30;99.90;;;;;;4945069;29;20027;-83
2021/10/20 06:06:25;;;;;;;7.18;5.60;;;15.30;99.90;;;;;;4924006;29;20395;-80
2021/10/20 06:08:52;;;;;;;7.88;5.63;;;15.30;99.90;;;;;;4917619;29;20051;-75
2021/10/20 06:11:17;;;;;;;5.88;5.25;;;15.40;99.90;;;;;;4932876;29;20055;-79
2021/10/20 06:13:44;;;;;;;7.95;5.72;;;15.40;99.90;;;;;;4917205;29;20054;-79
2021/10/20 06:16:11;;;;;;;6.70;5.40;;;15.40;99.90;;;;;;4935333;29;20476;-78
2021/10/20 06:18:37;;;;;;;9.82;5.05;;;15.50;99.90;;;;;;4917682;29;20039;-79
2021/10/20 06:21:04;;;;;;;7.85;5.15;;;15.50;99.90;;;;;;4917102;29;20031;-79
2021/10/20 06:23:30;;;;;;;8.25;5.72;;;15.50;99.90;;;;;;4918270;29;20023;-82
2021/10/20 06:25:56;;;;;;;7.13;5.40;;;15.50;99.90;;;;;;4934849;29;20035;-82
2021/10/20 06:28:22;;;;;;;8.90;5.22;;;15.50;99.90;;;;;;4917261;29;20114;-77
2021/10/20 06:30:47;;;;;;;5.90;4.97;;;15.50;99.90;;;;;;4918675;29;20020;-77
2021/10/20 06:33:14;;;;;;;6.35;5.20;;;15.60;99.90;;;;;;4917517;29;20024;-88
2021/10/20 06:35:40;;;;;;;7.78;5.15;;;15.60;99.90;;;;;;4917937;29;20048;-86
2021/10/20 06:38:05;;;;;;;9.38;5.25;;;15.60;99.90;;;;;;4917084;29;20019;-82
2021/10/20 06:40:37;;;;;;;5.72;5.22;;;15.60;99.90;;;;;;4927970;29;20029;-79
2021/10/20 06:43:02;;;;;;;11.52;5.05;;;15.70;99.90;;;;;;4919577;29;20028;-84
2021/10/20 06:45:28;;;;;;;6.78;4.93;;;15.70;99.90;;;;;;4933478;29;20425;-86
2021/10/20 06:47:53;;;;;;;7.65;5.55;;;15.70;99.90;;;;;;4918550;29;20024;-83
2021/10/20 06:50:19;;;;;;;5.20;4.70;;;15.70;99.90;;;;;;4935890;29;20043;-89
2021/10/20 06:52:45;;;;;;;8.23;4.78;;;15.70;99.90;;;;;;4921705;28;20118;-85
2021/10/20 06:55:12;;;;;;;6.28;4.85;;;15.70;99.90;;;;;;4952966;28;20040;-87
2021/10/20 06:57:39;;;;;;;11.27;5.45;;;15.70;99.90;;;;;;4955469;28;20028;-88
2021/10/20 07:00:06;;;;;;;9.98;4.88;;;15.80;99.90;;;;;;4932995;29;20035;-88
2021/10/20 07:02:32;;;;;;;5.78;4.82;;;15.80;99.90;;;;;;4934387;29;20505;-80
2021/10/20 07:04:57;;;;;;;6.85;5.30;;;15.80;99.90;;;;;;4933828;29;20104;-85
2021/10/20 07:07:23;;;;;;;7.88;5.72;;;15.80;99.90;;;;;;4932993;29;20079;-81
2021/10/20 07:09:48;;;;;;;6.45;5.53;;;15.80;99.90;;;;;;4951549;28;20035;-82
2021/10/20 07:12:14;;;;;;;8.00;5.40;;;15.80;99.90;;;;;;4952155;28;20114;-77
2021/10/20 07:14:41;;;;;;;7.85;5.13;;;15.80;99.90;;;;;;4952132;29;20122;-86
2021/10/20 07:17:09;;;;;;;7.45;5.13;;;15.90;99.90;;;;;;4937326;29;20024;-89
2021/10/20 07:19:36;;;;;;;8.57;5.35;;;15.90;99.90;;;;;;4936081;29;20058;-86
2021/10/20 07:22:02;;;;;;;5.22;4.72;;;15.90;99.90;;;;;;4952724;29;20024;-88
2021/10/20 07:24:41;;;;;;;5.15;4.63;;;15.90;99.90;;;;;;4959122;28;20062;-88
2021/10/20 07:27:07;;;;;;;5.18;4.45;;;15.90;99.90;;;;;;4946741;29;20388;-90
2021/10/20 07:29:33;;;;;;;7.35;4.93;;;15.90;99.90;;;;;;4936769;29;20031;-90
2021/10/20 07:32:00;;;;;;;6.22;4.95;;;16.00;99.90;;;;;;4941942;29;20035;-90
2021/10/20 07:34:26;;;;;;;11.45;4.95;;;16.00;99.90;;;;;;4957123;23;20059;-81
2021/10/20 07:36:52;;;;;;;5.80;5.00;;;16.10;99.90;;;;;;4962598;28;20074;-89
2021/10/20 07:39:18;;;;;;;6.07;4.78;;;16.20;99.90;;;;;;4956984;28;20019;-89
2021/10/20 07:41:44;;;;;;;5.25;4.75;;;16.20;99.90;;;;;;4956340;28;20046;-87
2021/10/20 07:44:10;;;;;;;5.65;4.93;;;16.10;99.90;;;;;;4955876;28;20092;-81
2021/10/20 07:46:36;;;;;;;5.18;4.65;;;16.10;99.90;;;;;;4956618;28;20073;-83
2021/10/20 07:49:01;;;;;;;6.28;5.53;;;16.10;99.90;;;;;;4958285;28;20534;-87
2021/10/20 07:51:27;;;;;;;6.18;5.57;;;16.10;99.90;;;;;;4957674;28;20030;-84
2021/10/20 07:53:53;;;;;;;7.32;5.47;;;16.10;99.90;;;;;;4958113;28;20450;-84
2021/10/20 07:56:18;;;;;;;5.40;4.90;;;16.10;99.90;;;;;;4939557;29;20080;-86
2021/10/20 07:58:44;;;;;;;7.43;5.57;;;16.20;99.90;;;;;;4940416;29;20396;-84
2021/10/20 08:01:11;;;;;;;6.35;4.90;;;16.20;99.90;;;;;;4940673;29;20456;-92
2021/10/20 08:03:38;;;;;;;5.95;5.35;;;16.20;99.90;;;;;;4953744;28;20023;-90
2021/10/20 08:06:03;;;;;;;6.15;5.35;;;16.20;99.90;;;;;;4976826;28;20088;-85
2021/10/20 08:08:29;;;;;;;8.10;5.03;;;16.20;99.90;;;;;;4950053;28;20106;-83
2021/10/20 08:10:55;;;;;;;7.20;5.75;;;16.10;99.90;;;;;;4958631;28;20067;-84
2021/10/20 08:13:20;;;;;;;5.70;5.10;;;16.10;99.90;;;;;;4957673;28;20023;-92
2021/10/20 08:15:48;;;;;;;6.78;5.20;;;16.10;99.90;;;;;;4958921;28;20031;-83
2021/10/20 08:18:14;;;;;;;8.02;5.78;;;16.10;99.90;;;;;;4962550;28;20030;-95
2021/10/20 08:20:40;;;;;;;6.07;5.47;;;16.10;99.90;;;;;;4961599;28;20030;-95
2021/10/20 08:23:06;;;;;;;5.40;4.45;;;16.10;99.90;;;;;;4959991;28;20027;-88
2021/10/20 08:25:34;;;;;;;7.10;5.20;;;16.10;99.90;;;;;;4954938;29;20039;-83
2021/10/20 08:28:00;;;;;;;8.40;5.50;;;16.10;99.90;;;;;;4955981;29;20035;-83
2021/10/20 08:30:26;;;;;;;6.43;5.65;;;16.10;99.90;;;;;;4967677;28;20027;-84
2021/10/20 08:32:54;;;;;;;6.22;5.35;;;16.10;99.90;;;;;;4957540;28;20475;-84
2021/10/20 08:35:20;;;;;;;6.80;5.85;;;16.10;99.90;;;;;;4955380;28;20543;-82
2021/10/20 08:37:54;;;;;;;6.25;5.65;;;16.10;99.90;;;;;;4956014;29;20019;-84
2021/10/20 08:40:22;;;;;;;6.57;5.43;;;16.20;99.90;;;;;;4953202;29;20392;-83
2021/10/20 08:42:48;;;;;;;7.85;5.65;;;16.20;99.90;;;;;;4956329;29;20075;-85
2021/10/20 08:45:14;;;;;;;6.13;5.53;;;16.20;99.90;;;;;;4953898;29;20440;-83
2021/10/20 08:47:42;;;;;;;6.97;6.10;;;16.10;99.90;;;;;;4955165;29;20046;-79
2021/10/20 08:50:08;;;;;;;5.57;5.07;;;16.20;99.90;;;;;;4956611;28;20039;-88
2021/10/20 08:52:34;;;;;;;6.78;6.07;;;16.20;99.90;;;;;;4938436;29;20482;-79
2021/10/20 08:55:01;;;;;;;11.65;6.10;;;16.20;99.90;;;;;;4955168;29;20070;-78
2021/10/20 08:57:27;;;;;;;6.15;5.13;;;16.20;99.90;;;;;;4954578;28;20383;-78
2021/10/20 08:59:52;;;;;;;5.95;5.30;;;16.20;99.90;;;;;;4952625;28;20027;-83
2021/10/20 09:02:22;;;;;;;6.97;6.00;;;16.20;99.90;;;;;;4954656;29;20051;-83
2021/10/20 09:04:54;;;;;;;6.32;5.70;;;16.30;99.90;;;;;;4951454;28;20529;-83
2021/10/20 09:07:20;;;;;;;7.05;5.90;;;16.40;99.90;;;;;;4953305;29;20454;-82
2021/10/20 09:09:49;;;;;;;7.45;6.10;;;16.50;99.90;;;;;;4953036;28;20547;-84
2021/10/20 09:12:23;;;;;;;9.32;5.68;;;16.60;99.90;;;;;;4953373;29;20458;-81
2021/10/20 09:14:49;;;;;;;8.13;5.53;;;16.80;99.90;;;;;;4954637;29;20539;-82
2021/10/20 09:17:14;;;;;;;7.82;5.70;;;16.80;99.90;;;;;;4954727;29;20084;-79
2021/10/20 09:19:40;;;;;;;6.63;5.80;;;16.80;99.90;;;;;;4954869;29;20022;-80
2021/10/20 09:22:09;;;;;;;6.80;6.13;;;16.80;99.90;;;;;;4953780;29;20042;-82
2021/10/20 09:24:40;;;;;;;9.38;6.03;;;16.80;99.90;;;;;;4954601;29;20035;-83
2021/10/20 09:27:17;;;;;;;;;;;16.80;99.90;;;;;;4954629;28;20034;-85
2021/10/20 09:29:43;;;;;;;6.63;5.93;;;16.80;99.90;;;;;;4938694;29;19910;-83
2021/10/20 09:32:09;;;;;;;7.65;5.90;;;16.80;99.90;;;;;;4953037;28;20042;-79
2021/10/20 09:34:35;;;;;;;7.30;6.05;;;16.80;99.90;;;;;;4953541;28;20039;-85
2021/10/20 09:37:03;;;;;;;6.18;5.57;;;16.80;99.90;;;;;;4955109;28;20034;-84
2021/10/20 09:39:29;;;;;;;6.18;5.57;;;16.90;99.90;;;;;;4970232;28;20515;-85
2021/10/20 09:42:05;;;;;;;6.22;5.63;;;16.90;99.90;;;;;;4953366;29;20047;-81
2021/10/20 09:44:45;;;;;;;7.95;6.07;;;16.90;99.90;;;;;;4952381;29;20122;-86
2021/10/20 09:47:10;;;;;;;6.57;5.95;;;17.00;99.90;;;;;;4952349;28;20034;-87
2021/10/20 09:49:49;;;;;;;7.20;6.35;;;17.00;99.90;;;;;;4952410;29;20023;-80
2021/10/20 09:52:16;;;;;;;7.25;6.07;;;17.10;99.90;;;;;;4952224;28;20023;-79
2021/10/20 09:54:44;;;;;;;6.43;5.50;;;17.20;99.90;;;;;;4953399;29;20455;-79
2021/10/20 09:57:11;;;;;;;6.90;6.03;;;17.20;99.90;;;;;;4952230;29;20019;-82
2021/10/20 09:59:38;;;;;;;7.15;6.38;;;17.20;99.90;;;;;;4952769;29;20035;-85
2021/10/20 10:02:04;;;;;;;7.15;6.45;;;17.20;99.90;;;;;;4951950;29;20118;-78
2021/10/20 10:04:30;;;;;;;6.68;5.97;;;17.30;99.90;;;;;;4939213;29;20032;-86
2021/10/20 10:06:55;;;;;;;8.18;5.80;;;17.30;99.90;;;;;;4950633;29;20024;-81
2021/10/20 10:09:22;;;;;;;6.93;6.03;;;17.30;99.90;;;;;;4969792;28;20468;-83
2021/10/20 10:12:09;;;;;;;7.57;6.10;;;17.40;99.90;;;;;;4969804;28;20063;-80
2021/10/20 10:14:41;;;;;;;7.22;6.50;;;17.50;99.90;;;;;;4950699;29;20054;-84
2021/10/20 10:17:08;;;;;;;7.22;6.22;;;17.70;99.90;;;;;;4951910;29;20476;-81
2021/10/20 10:19:39;;;;;;;7.13;6.25;;;17.70;99.90;;;;;;4952937;29;20027;-80
2021/10/20 10:22:23;;;;;;;8.18;6.50;;;17.80;99.90;;;;;;4954796;29;20074;-83
2021/10/20 10:24:49;;;;;;;7.43;6.72;;;17.80;99.90;;;;;;4937851;29;20028;-90
2021/10/20 10:27:15;;;;;;;7.60;6.40;;;17.70;99.90;;;;;;4943754;29;20068;-84
2021/10/20 10:30:00;;;;;;;6.88;6.18;;;17.70;99.90;;;;;;4952694;28;20035;-81
2021/10/20 10:32:27;;;;;;;6.43;5.78;;;17.60;99.90;;;;;;4963697;28;20035;-83
2021/10/20 10:34:54;;;;;;;7.07;6.38;;;17.50;99.90;;;;;;4951087;28;20043;-81
2021/10/20 10:37:32;;;;;;;6.95;6.25;;;17.50;99.90;;;;;;4948477;29;20023;-85
2021/10/20 10:40:17;;;;;;;10.40;6.60;;;17.40;99.90;;;;;;4955183;29;20034;-81
2021/10/20 10:42:47;;;;;;;8.18;5.97;;;17.40;99.90;;;;;;4953608;29;20111;-81
2021/10/20 10:45:17;;;;;;;7.13;6.28;;;17.40;99.90;;;;;;4952676;29;20031;-81
2021/10/20 10:47:57;;;;;;;7.20;5.97;;;17.40;99.90;;;;;;4969818;28;20030;-81
2021/10/20 10:50:53;;;;;;;6.82;6.10;;;17.40;99.90;;;;;;4953848;29;20074;-81
2021/10/20 10:53:34;;;;;;;5.88;5.30;;;17.40;99.90;;;;;;4952563;29;20387;-79
2021/10/20 10:56:08;;;;;;;7.85;5.43;;;17.40;99.90;;;;;;4953126;29;20034;-78
2021/10/20 10:58:54;;;;;;;9.05;5.93;;;17.40;99.90;;;;;;4953912;29;20039;-80
2021/10/20 11:01:40;;;;;;;7.32;5.65;;;17.40;99.90;;;;;;4953095;29;20023;-80
2021/10/20 11:04:26;;;;;;;6.10;5.40;;;17.40;99.90;;;;;;4952938;29;20122;-80
2021/10/20 11:06:55;;;;;;;7.20;5.80;;;17.40;99.90;;;;;;4952540;29;20030;-81
2021/10/20 11:09:30;;;;;;;6.45;5.85;;;17.40;99.90;;;;;;4953535;29;20074;-79
2021/10/20 11:11:56;;;;;;;6.68;5.07;;;17.40;99.90;;;;;;4953114;29;20031;-81
2021/10/20 11:14:24;;;;;;;7.03;5.65;;;17.40;99.90;;;;;;4952347;29;20043;-80
2021/10/20 11:16:58;;;;;;;6.35;5.70;;;17.40;99.90;;;;;;4953277;29;20468;-80
2021/10/20 11:19:25;;;;;;;5.72;5.00;;;17.40;99.90;;;;;;4952567;28;20035;-83
2021/10/20 11:21:52;;;;;;;9.85;5.47;;;17.40;99.90;;;;;;4940324;29;20044;-83
2021/10/20 11:24:17;;;;;;;6.38;5.72;;;17.40;99.90;;;;;;4956928;29;20035;-80
2021/10/20 11:26:53;;;;;;;6.80;5.68;;;17.50;99.90;;;;;;4956561;29;20154;-81
2021/10/20 11:29:19;;;;;;;7.00;4.97;;;17.40;99.90;;;;;;4956903;29;20036;-81
2021/10/20 11:31:54;;;;;;;6.32;4.90;;;17.40;99.90;;;;;;4973217;28;20047;-83
2021/10/20 11:34:23;;;;;;;7.65;5.43;;;17.40;99.90;;;;;;4958663;28;20403;-82
2021/10/20 11:36:49;;;;;;;5.57;4.90;;;17.50;99.90;;;;;;4960496;28;20037;-82
2021/10/20 11:39:15;;;;;;;6.82;4.78;;;17.50;99.90;;;;;;4959830;28;20027;-83
2021/10/20 11:41:49;;;;;;;5.35;4.85;;;17.50;99.90;;;;;;4959331;28;20085;-83
2021/10/20 11:44:28;;;;;;;6.05;5.18;;;17.50;99.90;;;;;;4959520;28;20041;-83
2021/10/20 11:47:00;;;;;;;6.03;5.10;;;17.60;99.90;;;;;;4977392;28;20491;-82
2021/10/20 11:49:26;;;;;;;7.22;5.20;;;17.60;99.90;;;;;;4975785;28;20022;-82
2021/10/20 11:51:52;;;;;;;5.22;4.72;;;17.60;99.90;;;;;;4976071;28;20127;-82
2021/10/20 11:54:21;;;;;;;5.78;4.50;;;17.60;99.90;;;;;;4959488;28;20054;-82
2021/10/20 11:56:57;;;;;;;6.95;5.05;;;17.60;99.90;;;;;;4959181;28;20022;-82
2021/10/20 11:59:25;;;;;;;7.53;5.43;;;17.60;99.90;;;;;;4976723;28;20041;-83
2021/10/20 12:01:52;;;;;;;6.43;5.13;;;17.60;99.90;;;;;;4958869;28;20058;-80
2021/10/20 12:04:19;;;;;;;5.93;4.85;;;17.60;99.90;;;;;;4959252;28;20066;-83
2021/10/20 12:06:52;;;;;;;6.72;6.05;;;17.60;99.90;;;;;;4959870;28;20027;-80
2021/10/20 12:09:18;;;;;;;8.18;5.72;;;17.50;99.90;;;;;;4958643;28;20023;-81
2021/10/20 12:11:44;;;;;;;8.10;5.07;;;17.50;99.90;;;;;;4975914;28;20031;-83
2021/10/20 12:14:12;;;;;;;6.07;5.47;;;17.50;99.90;;;;;;4958702;28;20073;-83
2021/10/20 12:16:40;;;;;;;5.88;5.20;;;17.50;99.90;;;;;;4976402;28;20042;-82
2021/10/20 12:19:08;;;;;;;5.90;5.30;;;17.50;99.90;;;;;;4976488;28;20030;-82
2021/10/20 12:21:34;;;;;;;5.30;4.78;;;17.50;99.90;;;;;;4959472;28;20037;-81
2021/10/20 12:24:02;;;;;;;6.32;5.43;;;17.60;99.90;;;;;;4974214;28;20019;-84
2021/10/20 12:26:32;;;;;;;6.85;5.40;;;17.50;99.90;;;;;;4976757;28;20027;-83
2021/10/20 12:29:07;;;;;;;5.25;4.75;;;17.50;99.90;;;;;;4958808;28;20025;-81
2021/10/20 12:31:33;;;;;;;7.03;5.68;;;17.50;99.90;;;;;;4958270;28;20109;-83
2021/10/20 12:33:58;;;;;;;7.85;5.32;;;17.50;99.90;;;;;;4976053;28;20022;-82
2021/10/20 12:36:27;;;;;;;6.85;5.55;;;17.50;99.90;;;;;;4959183;28;20380;-81
2021/10/20 12:38:55;;;;;;;5.70;5.18;;;17.50;99.90;;;;;;4958527;28;20023;-81
2021/10/20 12:41:23;;;;;;;6.85;4.78;;;17.50;99.90;;;;;;4958734;28;20372;-81
2021/10/20 12:43:51;;;;;;;5.63;5.05;;;17.60;99.90;;;;;;4975619;28;20105;-80
2021/10/20 12:46:18;;;;;;;5.97;5.38;;;17.60;99.90;;;;;;4958516;28;20127;-81
2021/10/20 12:48:44;;;;;;;8.00;5.35;;;17.60;99.90;;;;;;4976067;28;20035;-82